Time;durP1;ratioP1;P1;durP2;ratioP2;P2;SDS_P1;SDS_P2;PMS_P1;PMS_P2;Temp;Humidity;BMP_temperature;BMP_pressure;BME280_temperature;BME280_humidity;BME280_pressure;Samples;Min_cycle;Max_cycle;Signal;HPM_P1;HPM_P2
2022/01/29 00:00:08;;;;;;;18.43;9.53;;;8.70;57.70;;;;;;5010255;28;21053;-85
2022/01/29 00:02:39;;;;;;;16.90;9.70;;;8.90;57.30;;;;;;5018561;28;20869;-85
2022/01/29 00:05:07;;;;;;;21.07;9.43;;;8.90;57.00;;;;;;5014805;28;20509;-86
2022/01/29 00:07:38;;;;;;;21.33;11.57;;;8.80;57.00;;;;;;5009954;28;20467;-86
2022/01/29 00:10:06;;;;;;;16.30;9.40;;;8.50;57.70;;;;;;5031496;28;20464;-85
2022/01/29 00:12:34;;;;;;;20.13;10.47;;;8.50;57.70;;;;;;5012256;28;20447;-86
2022/01/29 00:15:01;;;;;;;24.73;13.40;;;8.50;57.70;;;;;;5011828;28;20967;-86
2022/01/29 00:17:29;;;;;;;30.47;10.27;;;8.60;57.50;;;;;;4997432;28;21059;-86
2022/01/29 00:19:56;;;;;;;21.43;11.87;;;8.40;57.90;;;;;;5011947;28;20478;-85
2022/01/29 00:22:25;;;;;;;17.37;11.23;;;8.50;58.10;;;;;;5014577;28;20456;-86
2022/01/29 00:24:52;;;;;;;26.30;10.43;;;8.50;58.20;;;;;;5014694;28;20474;-85
2022/01/29 00:27:21;;;;;;;18.70;9.90;;;8.50;58.00;;;;;;5012549;28;20483;-85
2022/01/29 00:29:50;;;;;;;21.80;9.93;;;8.60;58.10;;;;;;4998532;28;20461;-85
2022/01/29 00:32:17;;;;;;;19.73;10.30;;;8.50;57.90;;;;;;5011869;28;20751;-83
2022/01/29 00:34:44;;;;;;;20.13;9.77;;;8.50;58.00;;;;;;5013818;28;20569;-85
2022/01/29 00:37:11;;;;;;;17.07;9.23;;;8.60;57.70;;;;;;5013011;28;20891;-85
2022/01/29 00:39:38;;;;;;;19.57;9.67;;;8.50;57.90;;;;;;5013283;28;20493;-85
2022/01/29 00:42:06;;;;;;;17.47;9.73;;;8.40;58.00;;;;;;5017751;28;21317;-86
2022/01/29 00:44:33;;;;;;;15.90;9.63;;;8.50;57.70;;;;;;4998412;28;20475;-86
2022/01/29 00:47:02;;;;;;;19.13;8.63;;;8.50;57.70;;;;;;5013158;28;20480;-84
2022/01/29 00:49:28;;;;;;;19.50;9.43;;;8.40;57.90;;;;;;5014822;28;20446;-86
2022/01/29 00:51:55;;;;;;;16.80;10.30;;;8.30;57.80;;;;;;5012961;28;20457;-86
2022/01/29 00:54:22;;;;;;;15.20;8.17;;;8.40;57.70;;;;;;5018313;28;20485;-86
2022/01/29 00:56:49;;;;;;;16.40;9.27;;;8.30;58.10;;;;;;5013457;28;20455;-85
2022/01/29 00:59:16;;;;;;;11.57;7.63;;;8.40;57.80;;;;;;5018948;28;20965;-85
2022/01/29 01:01:43;;;;;;;15.93;8.53;;;8.40;57.80;;;;;;5014813;28;20453;-86
2022/01/29 01:04:11;;;;;;;11.83;7.77;;;8.30;57.50;;;;;;5013598;28;20482;-85
2022/01/29 01:06:38;;;;;;;19.27;8.27;;;8.10;57.60;;;;;;5013952;28;20478;-85
2022/01/29 01:09:05;;;;;;;12.83;7.80;;;8.10;58.00;;;;;;5016302;28;20958;-86
2022/01/29 01:11:32;;;;;;;14.37;8.20;;;8.30;57.70;;;;;;5012150;28;20474;-85
2022/01/29 01:13:59;;;;;;;15.20;7.77;;;8.30;57.40;;;;;;5008307;28;20455;-86
2022/01/29 01:16:26;;;;;;;22.80;7.93;;;8.40;57.30;;;;;;5009956;28;20471;-85
2022/01/29 01:18:53;;;;;;;13.40;7.27;;;8.50;57.00;;;;;;5010802;28;20459;-85
2022/01/29 01:21:21;;;;;;;10.60;6.70;;;8.60;56.60;;;;;;5000047;28;20513;-83
2022/01/29 01:23:48;;;;;;;16.27;7.30;;;8.60;56.10;;;;;;5014085;28;20462;-85
2022/01/29 01:26:15;;;;;;;10.20;7.00;;;8.60;56.30;;;;;;5022612;28;20835;-86
2022/01/29 01:28:42;;;;;;;10.27;6.47;;;8.50;56.10;;;;;;5030714;28;20472;-85
2022/01/29 01:31:09;;;;;;;12.50;6.50;;;8.40;56.60;;;;;;5018470;28;20966;-86
2022/01/29 01:33:36;;;;;;;12.97;6.67;;;8.50;56.70;;;;;;5015737;28;20617;-84
2022/01/29 01:36:06;;;;;;;12.93;6.77;;;8.40;56.20;;;;;;5000710;28;20489;-86
2022/01/29 01:38:41;;;;;;;10.20;6.17;;;8.40;56.80;;;;;;5002082;28;20448;-85
2022/01/29 01:41:12;;;;;;;11.23;5.60;;;8.40;56.40;;;;;;5013533;28;20453;-86
2022/01/29 01:43:39;;;;;;;12.70;6.33;;;8.40;56.30;;;;;;5018937;28;20779;-84
2022/01/29 01:46:07;;;;;;;11.37;6.10;;;8.20;56.50;;;;;;5016690;28;20506;-86
2022/01/29 01:48:34;;;;;;;12.20;6.40;;;8.40;56.30;;;;;;5005152;28;20467;-83
2022/01/29 01:51:01;;;;;;;12.53;6.27;;;8.40;56.30;;;;;;4996661;28;20455;-85
2022/01/29 01:53:28;;;;;;;11.33;6.37;;;8.30;56.60;;;;;;5016828;28;20450;-86
2022/01/29 01:55:56;;;;;;;11.83;6.00;;;8.30;56.40;;;;;;5012981;28;20479;-85
2022/01/29 01:58:23;;;;;;;13.20;6.40;;;8.30;56.40;;;;;;5028730;28;20535;-86
2022/01/29 02:00:51;;;;;;;10.50;6.47;;;8.50;56.20;;;;;;5014497;28;20459;-86
2022/01/29 02:03:22;;;;;;;12.37;6.20;;;8.60;55.90;;;;;;5017167;28;20451;-85
2022/01/29 02:05:49;;;;;;;8.80;6.27;;;8.50;55.70;;;;;;5014714;28;20999;-85
2022/01/29 02:08:16;;;;;;;9.87;6.87;;;8.70;55.60;;;;;;5013245;28;20469;-86
2022/01/29 02:10:45;;;;;;;8.73;5.10;;;8.70;55.80;;;;;;5014348;28;20516;-85
2022/01/29 02:13:13;;;;;;;11.70;6.53;;;8.70;55.50;;;;;;5019209;28;20554;-86
2022/01/29 02:15:40;;;;;;;10.80;6.07;;;8.70;55.60;;;;;;5014322;28;20497;-85
2022/01/29 02:18:13;;;;;;;11.20;6.20;;;8.60;55.60;;;;;;5014006;28;20462;-86
2022/01/29 02:20:40;;;;;;;10.80;5.97;;;8.70;55.60;;;;;;5029907;28;21922;-85
2022/01/29 02:23:09;;;;;;;10.33;5.97;;;8.70;55.40;;;;;;5017194;28;20465;-85
2022/01/29 02:25:38;;;;;;;15.30;7.00;;;8.60;55.70;;;;;;5015821;28;20471;-85
2022/01/29 02:28:08;;;;;;;13.50;6.10;;;8.70;55.60;;;;;;5021666;28;21120;-85
2022/01/29 02:30:36;;;;;;;10.20;6.27;;;8.20;56.20;;;;;;4997114;28;20455;-86
2022/01/29 02:33:06;;;;;;;9.63;6.77;;;8.20;56.50;;;;;;5005210;28;20533;-85
2022/01/29 02:35:37;;;;;;;12.20;6.60;;;8.30;56.60;;;;;;4997405;28;20474;-85
2022/01/29 02:38:03;;;;;;;13.03;6.57;;;8.40;56.10;;;;;;4995460;28;20839;-86
2022/01/29 02:40:35;;;;;;;11.10;5.80;;;8.50;56.00;;;;;;5016071;28;20470;-86
2022/01/29 02:43:11;;;;;;;9.93;5.53;;;8.50;55.90;;;;;;5004920;28;20471;-85
2022/01/29 02:45:40;;;;;;;13.40;6.53;;;8.40;56.50;;;;;;5014446;28;20510;-85
2022/01/29 02:48:07;;;;;;;11.77;5.83;;;8.40;56.30;;;;;;5015561;28;20503;-86
2022/01/29 02:50:34;;;;;;;12.57;6.63;;;8.40;56.20;;;;;;4998838;28;20459;-86
2022/01/29 02:53:01;;;;;;;13.07;6.10;;;8.40;57.10;;;;;;5012686;28;20939;-85
2022/01/29 02:55:29;;;;;;;9.77;4.80;;;8.40;56.40;;;;;;5010951;28;20474;-85
2022/01/29 02:57:58;;;;;;;8.70;5.10;;;8.50;56.10;;;;;;5013819;28;20454;-85
2022/01/29 03:00:25;;;;;;;9.77;5.20;;;8.40;56.40;;;;;;5016772;28;20471;-86
2022/01/29 03:02:53;;;;;;;11.37;6.17;;;8.40;56.80;;;;;;5013389;28;20458;-85
2022/01/29 03:05:20;;;;;;;17.93;6.97;;;8.50;56.70;;;;;;5014280;28;20647;-85
2022/01/29 03:07:47;;;;;;;8.00;5.70;;;8.70;56.70;;;;;;5014444;28;20498;-85
2022/01/29 03:10:14;;;;;;;6.40;5.27;;;8.80;55.70;;;;;;5013201;28;20452;-85
2022/01/29 03:12:41;;;;;;;13.53;6.13;;;8.90;55.50;;;;;;5018669;28;20455;-85
2022/01/29 03:15:11;;;;;;;10.00;6.60;;;8.90;55.60;;;;;;4997155;28;20990;-85
2022/01/29 03:17:39;;;;;;;11.00;5.40;;;8.90;55.30;;;;;;5014780;28;20455;-85
2022/01/29 03:20:07;;;;;;;10.00;5.40;;;8.70;55.50;;;;;;5014868;28;20455;-85
2022/01/29 03:22:33;;;;;;;16.87;6.10;;;8.70;55.80;;;;;;4981385;28;20447;-86
2022/01/29 03:25:00;;;;;;;10.80;5.83;;;8.80;56.00;;;;;;5014885;28;20479;-86
2022/01/29 03:27:27;;;;;;;12.57;6.30;;;8.80;55.50;;;;;;5030168;28;21088;-85
2022/01/29 03:29:54;;;;;;;10.27;5.50;;;8.60;55.60;;;;;;5015381;28;20799;-86
2022/01/29 03:32:23;;;;;;;11.60;5.67;;;8.80;55.80;;;;;;5012112;28;20454;-84
2022/01/29 03:34:49;;;;;;;11.40;5.10;;;8.80;55.80;;;;;;5003017;28;20478;-85
2022/01/29 03:37:16;;;;;;;12.43;6.37;;;8.90;55.20;;;;;;5013777;28;20459;-85
2022/01/29 03:39:45;;;;;;;13.67;7.70;;;8.80;55.90;;;;;;5009271;28;20454;-86
2022/01/29 03:42:13;;;;;;;14.90;5.33;;;8.90;55.80;;;;;;5012704;28;20487;-86
2022/01/29 03:44:40;;;;;;;10.40;4.57;;;9.00;55.50;;;;;;5012694;28;20841;-85
2022/01/29 03:47:08;;;;;;;7.47;4.70;;;8.80;55.40;;;;;;4980308;28;20541;-85
2022/01/29 03:49:36;;;;;;;10.57;5.33;;;8.80;55.80;;;;;;4997864;28;20450;-86
2022/01/29 03:52:04;;;;;;;11.07;5.93;;;8.90;55.90;;;;;;5020831;28;20474;-85
2022/01/29 03:54:30;;;;;;;8.90;6.03;;;8.80;55.60;;;;;;5014415;28;20474;-85
2022/01/29 03:56:57;;;;;;;9.33;4.83;;;8.70;55.80;;;;;;4988066;28;20534;-85
2022/01/29 03:59:24;;;;;;;16.70;6.17;;;8.60;56.20;;;;;;5014926;28;20459;-85
2022/01/29 04:01:51;;;;;;;10.07;5.30;;;8.30;56.70;;;;;;5015536;28;20455;-85
2022/01/29 04:04:18;;;;;;;10.67;6.13;;;8.40;57.20;;;;;;5012560;28;20443;-85
2022/01/29 04:06:46;;;;;;;12.17;5.90;;;8.50;56.90;;;;;;5013414;28;20458;-86
2022/01/29 04:09:13;;;;;;;9.33;5.67;;;8.50;56.80;;;;;;5010899;28;20475;-86
2022/01/29 04:11:40;;;;;;;14.00;6.30;;;8.50;56.80;;;;;;4985545;28;20450;-85
2022/01/29 04:14:14;;;;;;;9.40;5.60;;;8.50;56.70;;;;;;5009864;28;20789;-86
2022/01/29 04:16:41;;;;;;;9.93;5.17;;;8.50;56.60;;;;;;5011661;28;20470;-85
2022/01/29 04:19:08;;;;;;;10.33;6.47;;;8.40;57.40;;;;;;5013854;28;20462;-86
2022/01/29 04:21:35;;;;;;;12.30;6.07;;;8.20;57.50;;;;;;5029245;28;20831;-85
2022/01/29 04:24:04;;;;;;;9.47;6.43;;;8.20;57.70;;;;;;5016570;28;20438;-86
2022/01/29 04:26:34;;;;;;;13.93;5.70;;;8.30;57.80;;;;;;5012081;28;20467;-85
2022/01/29 04:29:02;;;;;;;12.50;6.77;;;8.30;57.50;;;;;;4996813;28;20487;-86
2022/01/29 04:31:37;;;;;;;7.67;5.47;;;8.30;57.50;;;;;;4997884;28;20449;-86
2022/01/29 04:34:04;;;;;;;13.70;5.90;;;8.30;57.50;;;;;;5025989;28;20450;-86
2022/01/29 04:36:31;;;;;;;9.70;5.20;;;8.40;57.50;;;;;;5002649;28;20458;-87
2022/01/29 04:38:58;;;;;;;8.10;5.20;;;8.50;57.10;;;;;;5001670;28;20447;-86
2022/01/29 04:41:27;;;;;;;7.47;4.47;;;8.30;57.30;;;;;;5017495;28;20490;-85
2022/01/29 04:43:54;;;;;;;10.70;5.03;;;8.20;57.60;;;;;;5027827;28;20863;-85
2022/01/29 04:46:21;;;;;;;10.10;6.07;;;8.20;57.70;;;;;;5011472;28;20483;-84
2022/01/29 04:48:48;;;;;;;7.30;4.93;;;8.30;57.70;;;;;;5010344;28;20954;-85
2022/01/29 04:51:14;;;;;;;12.03;6.30;;;8.30;58.00;;;;;;5013328;28;21014;-85
2022/01/29 04:53:41;;;;;;;9.60;5.47;;;8.40;57.50;;;;;;4996792;28;20462;-85
2022/01/29 04:56:08;;;;;;;10.90;4.77;;;8.40;57.50;;;;;;5010556;28;20479;-85
2022/01/29 04:58:37;;;;;;;10.93;6.53;;;8.30;57.40;;;;;;4996881;28;20463;-85
2022/01/29 05:01:04;;;;;;;10.83;5.27;;;8.30;57.60;;;;;;4998260;28;20447;-85
2022/01/29 05:03:32;;;;;;;11.27;6.57;;;8.20;57.50;;;;;;5001265;28;20890;-85
2022/01/29 05:05:59;;;;;;;11.77;5.73;;;8.30;57.70;;;;;;5033176;28;20482;-84
2022/01/29 05:08:26;;;;;;;11.27;6.00;;;8.40;57.30;;;;;;5014875;28;20471;-86
2022/01/29 05:10:54;;;;;;;9.20;5.83;;;8.30;57.50;;;;;;5015545;28;20454;-85
2022/01/29 05:13:25;;;;;;;13.07;6.20;;;8.50;57.50;;;;;;4999640;28;20443;-82
2022/01/29 05:16:07;;;;;;;11.23;6.50;;;8.50;57.50;;;;;;4985548;28;20486;-86
2022/01/29 05:26:53;;;;;;;11.67;5.37;;;8.70;57.00;;;;;;5002479;28;20440;-86
2022/01/29 05:29:20;;;;;;;12.00;6.53;;;8.60;56.80;;;;;;5014543;28;20925;-84
2022/01/29 05:31:51;;;;;;;14.77;6.47;;;8.50;57.10;;;;;;5018704;28;20539;-85
2022/01/29 05:34:19;;;;;;;13.50;6.50;;;8.20;57.60;;;;;;5016776;28;20509;-85
2022/01/29 05:36:46;;;;;;;12.30;6.50;;;8.30;58.00;;;;;;5017222;28;20457;-85
2022/01/29 05:39:13;;;;;;;8.57;5.27;;;8.40;57.70;;;;;;5016741;28;20459;-86
2022/01/29 05:41:40;;;;;;;10.40;6.33;;;8.40;57.60;;;;;;5020074;28;20466;-85
2022/01/29 05:44:07;;;;;;;11.13;5.10;;;8.60;57.40;;;;;;5004063;28;20989;-84
2022/01/29 05:46:34;;;;;;;13.60;6.50;;;8.50;57.20;;;;;;5015151;28;20800;-86
2022/01/29 05:49:03;;;;;;;15.07;7.17;;;8.70;57.20;;;;;;5000210;28;20470;-85
2022/01/29 05:51:31;;;;;;;19.97;10.33;;;8.70;56.80;;;;;;5017966;28;20973;-85
2022/01/29 05:53:58;;;;;;;15.47;9.10;;;8.50;57.20;;;;;;5015569;28;20528;-86
2022/01/29 05:56:25;;;;;;;28.13;12.60;;;8.50;57.30;;;;;;5014785;28;20478;-86
2022/01/29 05:58:53;;;;;;;13.83;8.40;;;8.60;57.10;;;;;;5009366;28;20454;-85
2022/01/29 06:01:20;;;;;;;18.83;7.70;;;8.60;57.00;;;;;;5012689;28;20459;-86
2022/01/29 06:03:47;;;;;;;12.93;7.10;;;8.80;56.80;;;;;;5015774;28;20451;-86
2022/01/29 06:06:15;;;;;;;10.57;6.47;;;8.50;56.80;;;;;;5001076;28;20466;-86
2022/01/29 06:08:43;;;;;;;14.87;6.63;;;8.50;57.40;;;;;;5016148;28;20474;-85
2022/01/29 06:11:10;;;;;;;17.20;8.50;;;8.50;57.40;;;;;;5016616;28;20443;-85
2022/01/29 06:13:37;;;;;;;12.20;6.50;;;8.40;57.40;;;;;;5016213;28;20470;-84
2022/01/29 06:16:04;;;;;;;11.80;6.67;;;8.40;57.50;;;;;;5013223;28;20486;-85
2022/01/29 06:18:32;;;;;;;11.93;7.07;;;8.40;57.50;;;;;;5017029;28;20462;-85
2022/01/29 06:21:04;;;;;;;13.23;6.23;;;8.30;57.80;;;;;;5013936;28;20471;-86
2022/01/29 06:23:34;;;;;;;15.87;7.80;;;8.30;57.50;;;;;;5017999;28;20830;-86
2022/01/29 06:26:03;;;;;;;12.67;7.13;;;8.40;57.60;;;;;;5013120;28;20475;-86
2022/01/29 06:28:30;;;;;;;20.40;11.63;;;8.30;57.70;;;;;;5030809;28;20562;-86
2022/01/29 06:30:57;;;;;;;11.40;6.60;;;8.60;57.20;;;;;;5014755;28;20648;-85
2022/01/29 06:33:24;;;;;;;14.10;7.10;;;8.60;56.90;;;;;;5004978;28;20463;-86
2022/01/29 06:35:51;;;;;;;20.17;9.20;;;8.30;57.40;;;;;;4997992;28;20489;-86
2022/01/29 06:38:17;;;;;;;17.83;8.20;;;8.40;57.70;;;;;;5013926;28;20447;-86
2022/01/29 06:40:46;;;;;;;32.77;11.30;;;8.60;57.30;;;;;;5015643;28;20462;-86
2022/01/29 06:43:13;;;;;;;20.93;8.10;;;8.80;56.90;;;;;;5013363;28;20446;-86
2022/01/29 06:45:43;;;;;;;15.57;7.07;;;8.70;56.30;;;;;;5016504;28;20498;-86
2022/01/29 06:48:10;;;;;;;14.30;7.27;;;8.50;56.80;;;;;;5014265;28;20501;-85
2022/01/29 06:50:37;;;;;;;13.73;6.90;;;8.40;57.30;;;;;;5012859;28;20459;-84
2022/01/29 06:53:06;;;;;;;13.10;6.87;;;8.50;57.40;;;;;;4996200;28;20455;-86
2022/01/29 06:55:33;;;;;;;10.57;5.33;;;8.40;57.40;;;;;;5020758;28;20482;-86
2022/01/29 06:58:01;;;;;;;10.43;6.37;;;8.40;57.60;;;;;;5016251;28;20469;-86
2022/01/29 07:00:29;;;;;;;14.77;7.67;;;8.50;57.50;;;;;;5029758;28;20458;-85
2022/01/29 07:02:56;;;;;;;12.73;6.70;;;8.50;57.50;;;;;;4996455;28;20994;-85
2022/01/29 07:05:23;;;;;;;8.47;5.07;;;8.20;58.00;;;;;;5031828;28;20485;-85
2022/01/29 07:07:50;;;;;;;15.13;8.73;;;8.30;58.30;;;;;;5010750;28;20494;-86
2022/01/29 07:10:17;;;;;;;15.37;6.80;;;8.20;58.20;;;;;;4996097;28;20462;-86
2022/01/29 07:12:44;;;;;;;12.03;5.90;;;8.30;58.60;;;;;;5014972;28;20458;-84
2022/01/29 07:15:13;;;;;;;18.90;9.20;;;8.50;58.10;;;;;;5020836;28;21241;-85
2022/01/29 07:17:40;;;;;;;15.60;7.90;;;8.60;57.50;;;;;;5004824;28;20473;-85
2022/01/29 07:20:08;;;;;;;11.37;5.83;;;8.80;57.40;;;;;;5015004;28;20478;-86
2022/01/29 07:22:35;;;;;;;16.43;6.93;;;8.70;56.90;;;;;;5012066;28;20466;-85
2022/01/29 07:25:02;;;;;;;12.37;6.20;;;8.60;57.30;;;;;;4997500;28;20466;-85
2022/01/29 07:27:29;;;;;;;13.00;6.30;;;8.50;57.40;;;;;;5014615;28;20467;-85
2022/01/29 07:29:56;;;;;;;11.90;6.77;;;8.50;57.90;;;;;;5016683;28;20501;-86
2022/01/29 07:32:24;;;;;;;10.93;5.73;;;8.40;57.90;;;;;;5013908;28;20466;-86
2022/01/29 07:34:51;;;;;;;12.23;7.13;;;8.40;58.00;;;;;;5012414;28;20482;-86
2022/01/29 07:37:18;;;;;;;13.80;6.40;;;8.50;57.90;;;;;;5012331;28;20455;-86
2022/01/29 07:39:45;;;;;;;14.13;6.97;;;8.70;57.70;;;;;;5012144;28;20973;-84
2022/01/29 07:42:12;;;;;;;13.67;7.07;;;8.60;57.50;;;;;;5013864;28;20926;-85
2022/01/29 07:44:39;;;;;;;8.80;5.47;;;8.50;58.00;;;;;;5013111;28;20470;-87
2022/01/29 07:47:06;;;;;;;11.20;5.40;;;8.50;57.70;;;;;;5014216;28;20462;-85
2022/01/29 07:49:35;;;;;;;16.90;6.10;;;8.20;58.30;;;;;;5008449;28;20475;-85
2022/01/29 07:52:02;;;;;;;16.17;7.37;;;8.20;58.90;;;;;;5014561;28;20904;-85
2022/01/29 07:54:29;;;;;;;14.03;7.30;;;8.10;59.10;;;;;;5010909;28;20486;-85
2022/01/29 07:56:56;;;;;;;13.83;6.23;;;8.00;59.70;;;;;;5020258;28;20833;-85
2022/01/29 07:59:23;;;;;;;16.17;8.20;;;8.20;60.10;;;;;;5009861;28;21104;-86
2022/01/29 08:01:50;;;;;;;19.10;10.77;;;8.00;60.10;;;;;;4994208;28;20463;-86
2022/01/29 08:04:17;;;;;;;14.70;8.27;;;8.00;60.60;;;;;;5011353;28;21130;-86
2022/01/29 08:06:45;;;;;;;12.10;6.37;;;8.10;60.60;;;;;;5012967;28;20470;-86
2022/01/29 08:09:12;;;;;;;14.73;7.90;;;8.30;60.10;;;;;;4991523;28;20859;-84
2022/01/29 08:11:39;;;;;;;22.07;10.60;;;8.30;59.70;;;;;;5024593;28;20551;-85
2022/01/29 08:14:06;;;;;;;10.67;5.63;;;8.30;59.70;;;;;;4996729;28;20447;-86
2022/01/29 08:16:33;;;;;;;9.90;6.07;;;8.30;59.30;;;;;;5007545;28;20459;-86
2022/01/29 08:19:00;;;;;;;8.50;5.43;;;8.40;59.80;;;;;;4991831;28;21001;-85
2022/01/29 08:21:27;;;;;;;9.23;6.70;;;8.40;59.50;;;;;;5011970;28;20466;-84
2022/01/29 08:23:55;;;;;;;9.00;7.70;;;8.60;59.60;;;;;;4994144;28;20473;-86
2022/01/29 08:26:22;;;;;;;18.60;6.90;;;8.70;59.50;;;;;;4991296;28;20490;-86
2022/01/29 08:28:49;;;;;;;12.50;6.77;;;8.70;59.60;;;;;;5017583;28;20470;-86
2022/01/29 08:31:15;;;;;;;7.80;5.00;;;8.70;59.00;;;;;;5017684;28;20469;-85
2022/01/29 08:33:42;;;;;;;11.27;5.57;;;8.70;58.80;;;;;;5001480;28;20907;-85
2022/01/29 08:36:09;;;;;;;9.90;6.73;;;8.60;59.00;;;;;;5015978;28;20485;-85
2022/01/29 08:38:36;;;;;;;7.30;5.90;;;8.40;59.20;;;;;;5011180;28;20493;-84
2022/01/29 08:41:05;;;;;;;11.90;6.57;;;8.20;60.10;;;;;;5009330;28;20469;-86
2022/01/29 08:43:33;;;;;;;7.83;5.43;;;8.40;59.80;;;;;;5008798;28;21017;-85
2022/01/29 08:46:00;;;;;;;10.80;4.57;;;8.50;59.70;;;;;;5014763;28;20600;-86
2022/01/29 08:48:27;;;;;;;6.53;4.87;;;8.70;59.10;;;;;;5024535;28;20877;-84
2022/01/29 08:50:54;;;;;;;9.37;7.40;;;8.80;59.00;;;;;;5009517;28;20482;-86
2022/01/29 08:53:21;;;;;;;7.73;4.63;;;8.70;58.30;;;;;;5023777;28;21100;-86
2022/01/29 08:55:48;;;;;;;7.73;5.07;;;8.70;58.70;;;;;;5000297;28;20897;-86
2022/01/29 08:58:17;;;;;;;8.70;5.60;;;8.40;59.20;;;;;;5008152;28;20730;-86
2022/01/29 09:00:45;;;;;;;8.53;6.80;;;8.30;59.70;;;;;;5016673;28;20460;-85
2022/01/29 09:03:14;;;;;;;6.77;4.47;;;8.40;59.60;;;;;;5016111;28;20463;-86
2022/01/29 09:05:43;;;;;;;8.43;4.80;;;8.60;58.90;;;;;;5011379;28;20584;-84
2022/01/29 09:08:10;;;;;;;7.80;4.80;;;8.50;59.30;;;;;;5014987;28;20470;-86
2022/01/29 09:10:37;;;;;;;8.57;5.30;;;8.50;58.70;;;;;;5013665;28;20486;-85
2022/01/29 09:13:04;;;;;;;7.23;4.50;;;8.50;58.80;;;;;;5011574;28;20462;-86
2022/01/29 09:15:33;;;;;;;5.53;3.77;;;8.60;58.80;;;;;;5014303;28;20787;-86
2022/01/29 09:18:00;;;;;;;13.13;6.57;;;8.70;58.90;;;;;;4995296;28;20476;-86
2022/01/29 09:20:27;;;;;;;14.47;7.07;;;8.70;58.60;;;;;;4982575;28;20460;-85
2022/01/29 09:22:54;;;;;;;7.17;4.70;;;8.70;58.70;;;;;;5000320;28;20860;-87
2022/01/29 09:25:21;;;;;;;6.63;4.70;;;8.70;58.60;;;;;;5002275;28;20495;-85
2022/01/29 09:27:48;;;;;;;7.30;6.43;;;8.50;58.80;;;;;;5002551;28;20829;-86
2022/01/29 09:30:15;;;;;;;6.07;4.57;;;8.60;59.10;;;;;;5014071;28;20475;-86
2022/01/29 09:32:44;;;;;;;4.07;2.80;;;8.50;59.10;;;;;;4995867;28;20446;-87
2022/01/29 09:35:10;;;;;;;3.87;3.23;;;8.60;59.00;;;;;;4993579;28;21193;-87
2022/01/29 09:37:37;;;;;;;6.10;3.27;;;8.50;59.00;;;;;;5011178;28;20463;-87
2022/01/29 09:40:05;;;;;;;4.80;3.30;;;8.50;59.10;;;;;;4999251;28;20958;-86
2022/01/29 09:42:32;;;;;;;4.70;3.10;;;8.50;59.00;;;;;;5026868;28;20834;-86
2022/01/29 09:45:00;;;;;;;5.90;4.27;;;8.50;59.00;;;;;;5014643;28;20507;-87
2022/01/29 09:47:28;;;;;;;5.60;3.50;;;8.70;58.80;;;;;;5030459;28;20466;-85
2022/01/29 09:49:58;;;;;;;4.67;3.97;;;8.60;58.90;;;;;;5017638;28;20481;-86
2022/01/29 09:52:25;;;;;;;4.87;3.80;;;8.80;58.70;;;;;;5013733;28;20456;-86
2022/01/29 09:54:52;;;;;;;6.10;3.63;;;8.90;58.20;;;;;;5016647;28;20478;-86
2022/01/29 09:57:19;;;;;;;6.13;4.03;;;8.90;58.10;;;;;;5001277;28;20463;-84
2022/01/29 09:59:47;;;;;;;4.37;3.70;;;8.90;58.10;;;;;;5020682;28;20473;-86
2022/01/29 10:02:16;;;;;;;4.30;3.20;;;8.80;58.40;;;;;;5016192;28;20669;-86
2022/01/29 10:04:48;;;;;;;3.60;3.20;;;9.00;58.60;;;;;;5021904;28;20484;-86
2022/01/29 10:07:18;;;;;;;7.23;5.10;;;9.10;58.30;;;;;;5018375;28;20962;-85
2022/01/29 10:09:45;;;;;;;4.60;2.63;;;9.20;58.00;;;;;;5018617;28;21261;-86
2022/01/29 10:12:17;;;;;;;5.20;3.57;;;9.10;57.90;;;;;;5002024;28;20468;-86
2022/01/29 10:14:48;;;;;;;3.33;2.37;;;9.00;58.50;;;;;;5012701;28;20885;-86
2022/01/29 10:17:41;;;;;;;4.07;2.70;;;9.10;58.60;;;;;;5011800;28;20542;-86
2022/01/29 10:20:14;;;;;;;2.37;1.97;;;9.20;58.10;;;;;;5017467;28;20497;-85
2022/01/29 10:22:46;;;;;;;3.80;3.03;;;9.30;58.20;;;;;;5032558;28;20978;-84
2022/01/29 10:25:15;;;;;;;3.63;2.80;;;9.20;58.10;;;;;;5014064;28;20569;-85
2022/01/29 10:28:07;;;;;;;4.27;2.90;;;9.20;58.00;;;;;;5021936;28;20465;-86
2022/01/29 10:30:36;;;;;;;10.03;5.10;;;9.10;58.10;;;;;;5032005;28;20477;-86
2022/01/29 10:33:25;;;;;;;5.00;3.53;;;9.10;58.40;;;;;;5013009;28;20451;-83
2022/01/29 10:35:54;;;;;;;11.60;6.30;;;9.10;58.20;;;;;;5008966;28;20483;-87
2022/01/29 10:38:24;;;;;;;6.90;4.80;;;8.90;58.80;;;;;;5014644;28;20470;-86
2022/01/29 10:41:17;;;;;;;2.87;2.23;;;8.80;59.20;;;;;;5014128;28;20461;-86
2022/01/29 10:43:58;;;;;;;6.53;2.50;;;8.80;59.00;;;;;;5012654;28;20443;-86
2022/01/29 10:46:26;;;;;;;8.50;3.20;;;8.80;59.10;;;;;;5029541;28;20493;-85
2022/01/29 10:48:53;;;;;;;2.50;2.30;;;9.00;59.00;;;;;;5003961;28;20478;-88
2022/01/29 10:51:20;;;;;;;3.20;2.43;;;8.90;58.70;;;;;;5001863;28;20505;-85
2022/01/29 10:53:49;;;;;;;3.90;2.63;;;8.80;59.10;;;;;;5018444;28;20462;-86
2022/01/29 10:56:16;;;;;;;4.27;2.87;;;8.80;59.30;;;;;;5014706;28;20470;-87
2022/01/29 10:58:44;;;;;;;4.57;3.03;;;8.90;59.10;;;;;;5013416;28;20443;-86
2022/01/29 11:01:15;;;;;;;7.87;6.87;;;9.00;59.20;;;;;;4997729;28;20717;-86
2022/01/29 11:03:43;;;;;;;3.53;2.50;;;9.10;58.90;;;;;;5008740;28;20465;-86
2022/01/29 11:06:13;;;;;;;3.43;2.63;;;9.00;58.60;;;;;;5015315;28;21054;-86
2022/01/29 11:08:41;;;;;;;3.77;2.37;;;9.00;58.70;;;;;;5028472;28;20659;-86
2022/01/29 11:11:11;;;;;;;3.73;2.20;;;8.80;59.40;;;;;;5012077;28;20482;-86
2022/01/29 11:13:40;;;;;;;2.57;1.90;;;9.10;59.30;;;;;;5013024;28;20456;-86
2022/01/29 11:16:07;;;;;;;2.10;1.90;;;9.00;58.70;;;;;;5009429;28;20475;-86
2022/01/29 11:18:35;;;;;;;2.70;2.17;;;9.00;58.90;;;;;;5028937;28;20979;-86
2022/01/29 11:21:03;;;;;;;3.70;3.40;;;9.10;58.80;;;;;;5015927;28;20756;-87
2022/01/29 11:23:31;;;;;;;2.70;2.50;;;9.10;59.00;;;;;;5014470;28;20756;-85
2022/01/29 11:26:00;;;;;;;3.67;1.70;;;9.10;58.50;;;;;;5014206;28;20471;-87
2022/01/29 11:28:29;;;;;;;2.60;2.40;;;9.10;58.50;;;;;;5001963;28;20458;-85
2022/01/29 11:31:20;;;;;;;13.30;8.30;;;9.00;58.90;;;;;;5013810;28;20478;-86
2022/01/29 11:34:22;;;;;;;3.27;3.03;;;8.90;58.90;;;;;;5017373;28;20459;-86
2022/01/29 11:37:06;;;;;;;15.73;8.80;;;9.00;59.10;;;;;;5014379;28;20461;-86
2022/01/29 11:39:36;;;;;;;5.77;5.13;;;9.20;59.10;;;;;;5013978;28;20463;-87
2022/01/29 11:42:28;;;;;;;5.50;2.50;;;9.30;58.40;;;;;;4998929;28;20525;-86
2022/01/29 11:45:06;;;;;;;5.60;3.73;;;9.40;58.20;;;;;;5010814;28;20978;-87
2022/01/29 11:47:47;;;;;;;2.10;1.90;;;9.50;58.20;;;;;;4999538;28;20464;-86
2022/01/29 11:50:44;;;;;;;2.67;2.33;;;9.50;58.20;;;;;;5015243;28;20535;-87
2022/01/29 11:53:11;;;;;;;3.60;2.63;;;9.50;58.30;;;;;;4983640;28;20455;-87
2022/01/29 11:55:40;;;;;;;6.57;4.17;;;9.60;58.40;;;;;;5011314;28;20482;-85
2022/01/29 11:58:17;;;;;;;3.13;2.33;;;9.60;58.30;;;;;;5019784;28;20557;-87
2022/01/29 12:00:48;;;;;;;2.83;2.63;;;9.50;58.30;;;;;;4998090;28;20470;-86
2022/01/29 12:03:51;;;;;;;3.70;3.07;;;9.40;58.90;;;;;;5016543;28;20482;-87
2022/01/29 12:06:22;;;;;;;2.37;2.17;;;9.40;58.70;;;;;;4995394;28;20501;-86
2022/01/29 12:09:25;;;;;;;4.13;2.10;;;9.40;58.30;;;;;;5011706;28;20455;-86
2022/01/29 12:12:15;;;;;;;4.63;4.23;;;9.40;59.10;;;;;;4917452;29;20458;-86
2022/01/29 12:14:42;;;;;;;2.30;1.97;;;9.30;59.10;;;;;;4992312;28;20852;-86
2022/01/29 12:17:12;;;;;;;3.43;2.03;;;9.40;58.80;;;;;;5011375;28;20786;-86
2022/01/29 12:19:40;;;;;;;2.80;2.10;;;9.50;58.70;;;;;;5010154;28;20470;-85
2022/01/29 12:22:13;;;;;;;2.83;2.53;;;9.70;58.50;;;;;;5013774;28;20450;-86
2022/01/29 12:24:41;;;;;;;2.13;1.93;;;9.70;58.00;;;;;;5011025;28;20505;-86
2022/01/29 12:27:09;;;;;;;2.17;1.97;;;9.70;57.70;;;;;;5014439;28;20944;-86
2022/01/29 12:29:36;;;;;;;4.90;2.50;;;9.70;57.90;;;;;;5012229;28;20455;-85
2022/01/29 12:32:04;;;;;;;2.70;2.07;;;9.90;57.40;;;;;;5016157;28;20451;-86
2022/01/29 12:34:33;;;;;;;2.93;2.33;;;10.00;56.30;;;;;;5011089;28;20471;-86
2022/01/29 12:37:11;;;;;;;3.97;2.43;;;10.20;55.80;;;;;;5014095;28;20458;-86
2022/01/29 12:39:39;;;;;;;6.43;3.03;;;10.00;55.90;;;;;;5028628;28;20455;-85
2022/01/29 12:42:16;;;;;;;7.73;4.73;;;10.00;56.20;;;;;;4980781;28;20458;-86
2022/01/29 12:44:54;;;;;;;2.80;1.87;;;10.00;56.20;;;;;;5011296;28;20564;-86
2022/01/29 12:47:26;;;;;;;3.57;2.57;;;9.80;57.20;;;;;;5012214;28;20830;-85
2022/01/29 12:49:55;;;;;;;2.30;2.10;;;9.70;57.70;;;;;;4999759;28;20459;-85
2022/01/29 12:52:23;;;;;;;2.40;1.90;;;9.90;57.70;;;;;;4999942;28;20464;-86
2022/01/29 12:54:54;;;;;;;2.67;2.27;;;9.80;57.70;;;;;;4983830;28;20474;-87
2022/01/29 12:57:22;;;;;;;2.80;2.10;;;10.00;57.00;;;;;;5011285;28;20474;-85
2022/01/29 12:59:49;;;;;;;4.20;3.10;;;10.00;56.80;;;;;;5012821;28;20462;-86
2022/01/29 13:02:16;;;;;;;5.73;3.20;;;10.00;56.80;;;;;;5014067;28;20466;-86
2022/01/29 13:04:46;;;;;;;4.80;2.60;;;10.00;57.20;;;;;;5013177;28;20478;-87
2022/01/29 13:07:18;;;;;;;2.37;2.10;;;9.90;58.60;;;;;;5011091;28;20459;-86